createdAt,value
2022-08-30T00:00:10.324Z,35.13
2022-08-30T00:01:14.329Z,35.93
2022-08-30T00:02:10.329Z,38.35
2022-08-30T00:03:10.449Z,36.25
2022-08-30T00:04:10.271Z,49.95
2022-08-30T00:05:10.253Z,37.54
2022-08-30T00:06:10.247Z,34.97
2022-08-30T00:07:10.231Z,34.00
2022-08-30T00:08:10.219Z,32.71
2022-08-30T00:09:10.216Z,62.04
2022-08-30T00:10:10.197Z,36.25
2022-08-30T00:11:10.191Z,37.22
2022-08-30T00:12:10.168Z,46.25
2022-08-30T00:13:10.167Z,35.45
2022-08-30T00:14:10.149Z,33.03
2022-08-30T00:15:10.152Z,35.61
2022-08-30T00:16:10.192Z,33.03
2022-08-30T00:17:10.110Z,35.45
2022-08-30T00:18:10.098Z,32.71
2022-08-30T00:19:10.107Z,46.73
2022-08-30T00:20:10.074Z,37.54
2022-08-30T00:21:10.068Z,50.60
2022-08-30T00:22:10.050Z,44.96
2022-08-30T00:23:10.033Z,40.77
2022-08-30T00:24:10.023Z,35.93
2022-08-30T00:25:10.012Z,36.09
2022-08-30T00:26:09.999Z,37.22
2022-08-30T00:27:09.999Z,33.68
2022-08-30T00:28:09.980Z,32.71
2022-08-30T00:29:09.963Z,35.29
2022-08-30T00:30:09.951Z,38.19
2022-08-30T00:31:09.967Z,36.58
2022-08-30T00:32:09.924Z,36.58
2022-08-30T00:33:09.952Z,34.64
2022-08-30T00:34:09.897Z,33.84
2022-08-30T00:35:09.893Z,41.57
2022-08-30T00:36:09.874Z,40.61
2022-08-30T00:37:09.866Z,40.28
2022-08-30T00:38:09.856Z,32.39
2022-08-30T00:39:09.872Z,32.39
2022-08-30T00:40:09.862Z,41.25
2022-08-30T00:41:09.818Z,34.00
2022-08-30T00:42:09.802Z,35.29
2022-08-30T00:43:09.822Z,37.71
2022-08-30T00:44:09.775Z,35.61
2022-08-30T00:45:09.775Z,34.97
2022-08-30T00:46:09.777Z,35.93
2022-08-30T00:47:09.740Z,43.51
2022-08-30T00:48:09.723Z,35.93
2022-08-30T00:49:09.712Z,38.99
2022-08-30T00:50:09.701Z,36.90
2022-08-30T00:51:09.698Z,34.64
2022-08-30T00:52:09.676Z,38.83
2022-08-30T00:53:09.763Z,35.29
2022-08-30T00:54:09.655Z,33.52
2022-08-30T00:55:09.646Z,35.45
2022-08-30T00:56:09.624Z,34.48
2022-08-30T00:57:09.627Z,33.52
2022-08-30T00:58:09.602Z,35.13
2022-08-30T00:59:09.591Z,34.00
2022-08-30T01:00:09.627Z,42.22
2022-08-30T01:01:09.630Z,39.48
2022-08-30T01:02:09.609Z,44.15
2022-08-30T01:03:09.623Z,35.13
2022-08-30T01:04:09.531Z,34.64
2022-08-30T01:05:09.518Z,44.47
2022-08-30T01:06:09.507Z,41.41
2022-08-30T01:07:09.493Z,53.82
2022-08-30T01:08:09.481Z,35.45
2022-08-30T01:09:09.477Z,34.64
2022-08-30T01:10:09.458Z,36.74
2022-08-30T01:11:09.444Z,34.97
2022-08-30T01:12:09.429Z,33.03
2022-08-30T01:13:09.420Z,34.97
2022-08-30T01:14:09.403Z,34.97
2022-08-30T01:15:09.398Z,39.16
2022-08-30T01:16:09.510Z,35.61
2022-08-30T01:17:09.368Z,38.83
2022-08-30T01:18:09.360Z,35.29
2022-08-30T01:19:09.353Z,41.25
2022-08-30T01:20:09.331Z,56.88
2022-08-30T01:21:09.341Z,33.19
2022-08-30T01:22:09.308Z,35.29
2022-08-30T01:23:09.348Z,33.52
2022-08-30T01:24:09.278Z,52.21
2022-08-30T01:25:09.268Z,35.61
2022-08-30T01:26:09.256Z,35.45
2022-08-30T01:27:09.256Z,41.25
2022-08-30T01:28:09.232Z,45.44
2022-08-30T01:29:09.229Z,38.99
2022-08-30T01:30:09.207Z,38.51
2022-08-30T01:31:09.212Z,50.60
2022-08-30T01:32:09.187Z,38.99
2022-08-30T01:33:09.255Z,34.97
2022-08-30T01:34:09.156Z,38.99
2022-08-30T01:35:09.146Z,51.72
2022-08-30T01:36:09.132Z,33.84
2022-08-30T01:37:09.119Z,34.64
2022-08-30T01:38:09.109Z,39.48
2022-08-30T01:39:09.109Z,38.03
2022-08-30T01:40:09.129Z,39.64
2022-08-30T01:41:09.074Z,33.68
2022-08-30T01:42:09.057Z,35.45
2022-08-30T01:43:09.084Z,38.03
2022-08-30T01:44:09.051Z,43.34
2022-08-30T01:45:09.030Z,35.93
2022-08-30T01:46:09.042Z,33.19
2022-08-30T01:47:08.999Z,43.67
2022-08-30T01:48:08.984Z,50.43
2022-08-30T01:49:08.973Z,36.58
2022-08-30T01:50:08.959Z,38.99
2022-08-30T01:51:08.960Z,33.03
2022-08-30T01:52:08.934Z,45.60
2022-08-30T01:53:08.983Z,38.67
2022-08-30T01:54:08.908Z,47.70
2022-08-30T01:55:08.896Z,36.90
2022-08-30T01:56:08.885Z,35.45
2022-08-30T01:57:08.882Z,40.12
2022-08-30T01:58:08.866Z,39.64
2022-08-30T01:59:08.848Z,34.00
2022-08-30T02:00:08.841Z,35.61
2022-08-30T02:01:08.882Z,38.19
2022-08-30T02:02:08.811Z,38.51
2022-08-30T02:03:08.880Z,34.00
2022-08-30T02:04:08.867Z,36.90
2022-08-30T02:05:08.772Z,35.45
2022-08-30T02:06:08.761Z,34.97
2022-08-30T02:07:08.750Z,35.61
2022-08-30T02:08:08.736Z,41.73
2022-08-30T02:09:08.738Z,35.77
2022-08-30T02:10:08.714Z,35.13
2022-08-30T02:11:08.698Z,33.19
2022-08-30T02:12:08.690Z,35.77
2022-08-30T02:13:08.701Z,33.03
2022-08-30T02:14:08.664Z,35.61
2022-08-30T02:15:08.661Z,36.42
2022-08-30T02:16:08.655Z,49.47
2022-08-30T02:17:08.626Z,40.77
2022-08-30T02:18:08.623Z,37.38
2022-08-30T02:19:08.597Z,39.64
2022-08-30T02:20:08.605Z,42.22
2022-08-30T02:21:08.582Z,33.19
2022-08-30T02:22:08.560Z,42.22
2022-08-30T02:23:08.568Z,39.16
2022-08-30T02:24:08.543Z,35.45
2022-08-30T02:25:11.246Z,45.92
2022-08-30T02:26:08.523Z,36.90
2022-08-30T02:27:08.523Z,37.87
2022-08-30T02:28:08.487Z,39.64
2022-08-30T02:29:08.478Z,34.48
2022-08-30T02:30:08.465Z,46.25
2022-08-30T02:31:08.523Z,35.45
2022-08-30T02:32:08.439Z,32.87
2022-08-30T02:33:08.437Z,35.45
2022-08-30T02:34:08.413Z,45.28
2022-08-30T02:35:08.398Z,35.77
2022-08-30T02:36:08.388Z,36.90
2022-08-30T02:37:08.372Z,45.12
2022-08-30T02:38:08.368Z,48.18
2022-08-30T02:39:08.361Z,36.58
2022-08-30T02:40:08.408Z,37.22
2022-08-30T02:41:08.323Z,41.89
2022-08-30T02:42:08.314Z,44.79
2022-08-30T02:43:08.335Z,44.31
2022-08-30T02:44:08.290Z,35.61
2022-08-30T02:45:08.284Z,48.66
2022-08-30T02:46:08.369Z,36.58
2022-08-30T02:47:08.274Z,37.54
2022-08-30T02:48:08.241Z,39.48
2022-08-30T02:49:32.070Z,41.25
2022-08-30T02:50:08.217Z,38.35
2022-08-30T02:51:09.581Z,41.25
2022-08-30T02:52:08.188Z,56.24
2022-08-30T02:53:08.174Z,36.90
2022-08-30T02:54:08.162Z,56.07
2022-08-30T02:55:08.151Z,35.13
2022-08-30T02:56:08.136Z,37.54
2022-08-30T02:57:08.148Z,35.93
2022-08-30T02:58:08.119Z,39.48
2022-08-30T02:59:08.100Z,33.52
2022-08-30T03:00:08.087Z,53.82
2022-08-30T03:01:08.117Z,35.77
2022-08-30T03:02:08.067Z,38.35
2022-08-30T03:03:08.062Z,38.51
2022-08-30T03:04:08.038Z,43.02
2022-08-30T03:05:08.058Z,37.22
2022-08-30T03:06:08.018Z,48.50
2022-08-30T03:07:08.005Z,57.36
2022-08-30T03:08:07.990Z,43.99
2022-08-30T03:09:07.988Z,50.92
2022-08-30T03:10:07.962Z,41.89
2022-08-30T03:11:07.958Z,46.89
2022-08-30T03:12:07.954Z,42.70
2022-08-30T03:13:07.927Z,52.37
2022-08-30T03:14:07.915Z,44.79
2022-08-30T03:15:07.915Z,51.56
2022-08-30T03:16:07.900Z,38.51
2022-08-30T03:17:12.745Z,57.36
2022-08-30T03:18:07.874Z,37.54
2022-08-30T03:19:07.852Z,44.31
2022-08-30T03:20:07.842Z,43.18
2022-08-30T03:21:07.859Z,49.63
2022-08-30T03:22:07.812Z,40.93
2022-08-30T03:23:07.799Z,57.20
2022-08-30T03:24:07.788Z,52.69
2022-08-30T03:25:07.778Z,46.89
2022-08-30T03:26:07.851Z,59.78
2022-08-30T03:27:07.774Z,39.64
2022-08-30T03:28:07.740Z,43.99
2022-08-30T03:29:07.728Z,58.49
2022-08-30T03:30:07.715Z,40.61
2022-08-30T03:31:07.706Z,38.03
2022-08-30T03:32:07.760Z,58.97
2022-08-30T03:33:07.699Z,55.43
2022-08-30T03:34:07.670Z,44.79
2022-08-30T03:35:07.715Z,41.57
2022-08-30T03:36:07.640Z,54.30
2022-08-30T03:37:07.629Z,43.34
2022-08-30T03:38:07.618Z,54.62
2022-08-30T03:39:07.671Z,58.49
2022-08-30T03:40:07.638Z,49.63
2022-08-30T03:41:07.580Z,56.40
2022-08-30T03:42:07.588Z,52.85
2022-08-30T03:43:07.571Z,48.98
2022-08-30T03:44:07.542Z,39.80
2022-08-30T03:45:07.544Z,60.10
2022-08-30T03:46:07.608Z,45.92
2022-08-30T03:47:07.507Z,57.69
2022-08-30T03:48:07.495Z,63.00
2022-08-30T03:49:07.481Z,54.62
2022-08-30T03:50:07.472Z,50.27
2022-08-30T03:51:07.471Z,51.24
2022-08-30T03:52:07.445Z,40.61
2022-08-30T03:53:07.432Z,48.50
2022-08-30T03:54:07.421Z,47.86
2022-08-30T03:55:07.410Z,58.17
2022-08-30T03:56:07.393Z,44.96
2022-08-30T03:57:07.405Z,58.33
2022-08-30T03:58:07.375Z,41.09
2022-08-30T03:59:07.377Z,56.88
2022-08-30T04:00:07.347Z,55.11
2022-08-30T04:01:07.400Z,38.83
2022-08-30T04:02:07.328Z,54.95
2022-08-30T04:03:07.263Z,58.49
2022-08-30T04:04:07.299Z,54.79
2022-08-30T04:05:07.282Z,42.70
2022-08-30T04:06:07.276Z,60.59
2022-08-30T04:07:07.259Z,45.12
2022-08-30T04:08:07.250Z,55.75
2022-08-30T04:09:07.246Z,48.50
2022-08-30T04:10:07.223Z,42.54
2022-08-30T04:11:07.214Z,48.82
2022-08-30T04:12:07.263Z,49.63
2022-08-30T04:13:07.182Z,40.12
2022-08-30T04:14:07.175Z,53.66
2022-08-30T04:15:07.171Z,59.78
2022-08-30T04:16:07.176Z,52.53
2022-08-30T04:17:07.158Z,43.02
2022-08-30T04:18:07.124Z,46.41
2022-08-30T04:19:07.056Z,42.38
2022-08-30T04:20:07.100Z,50.60
2022-08-30T04:21:08.806Z,55.91
2022-08-30T04:22:07.083Z,50.43
2022-08-30T04:23:07.025Z,56.07
2022-08-30T04:24:07.003Z,56.88
2022-08-30T04:25:06.987Z,52.85
2022-08-30T04:26:07.027Z,43.83
2022-08-30T04:27:06.978Z,46.89
2022-08-30T04:28:06.945Z,38.83
2022-08-30T04:29:06.939Z,41.73
2022-08-30T04:30:06.925Z,58.97
2022-08-30T04:31:06.909Z,38.35
2022-08-30T04:32:06.954Z,61.55
2022-08-30T04:33:06.895Z,66.23
2022-08-30T04:34:06.872Z,44.47
2022-08-30T04:35:06.864Z,59.46
2022-08-30T04:36:06.846Z,61.55
2022-08-30T04:37:06.834Z,42.06
2022-08-30T04:38:06.824Z,41.89
2022-08-30T04:39:06.840Z,58.97
2022-08-30T04:40:06.838Z,41.89
2022-08-30T04:41:06.785Z,42.38
2022-08-30T04:42:06.772Z,55.75
2022-08-30T04:43:06.758Z,59.94
2022-08-30T04:44:06.748Z,58.33
2022-08-30T04:45:06.745Z,61.23
2022-08-30T04:46:06.764Z,38.67
2022-08-30T04:47:06.719Z,57.04
2022-08-30T04:48:06.697Z,57.04
2022-08-30T04:49:06.690Z,42.38
2022-08-30T04:50:06.672Z,59.30
2022-08-30T04:51:06.694Z,58.49
2022-08-30T04:52:06.648Z,53.50
2022-08-30T04:53:06.642Z,47.53
2022-08-30T04:54:06.633Z,64.13
2022-08-30T04:55:06.612Z,52.37
2022-08-30T04:56:06.603Z,53.17
2022-08-30T04:57:06.598Z,62.20
2022-08-30T04:58:06.573Z,42.38
2022-08-30T04:59:06.563Z,41.09
2022-08-30T05:00:06.548Z,59.62
2022-08-30T05:01:06.637Z,53.82
2022-08-30T05:02:06.559Z,42.86
2022-08-30T05:03:06.524Z,59.14
2022-08-30T05:04:06.497Z,57.04
2022-08-30T05:05:06.486Z,58.81
2022-08-30T05:06:06.472Z,59.46
2022-08-30T05:07:06.462Z,54.14
2022-08-30T05:08:06.454Z,50.27
2022-08-30T05:09:06.451Z,59.14
2022-08-30T05:10:10.975Z,54.62
2022-08-30T05:11:06.411Z,46.41
2022-08-30T05:12:06.414Z,59.78
2022-08-30T05:13:06.387Z,43.34
2022-08-30T05:14:06.376Z,50.43
2022-08-30T05:15:06.375Z,65.74
2022-08-30T05:16:06.381Z,43.34
2022-08-30T05:17:06.341Z,61.71
2022-08-30T05:18:06.327Z,59.94
2022-08-30T05:19:06.320Z,52.53
2022-08-30T05:20:06.304Z,56.72
2022-08-30T05:21:06.296Z,60.10
2022-08-30T05:22:06.283Z,49.63
2022-08-30T05:23:06.263Z,53.17
2022-08-30T05:24:06.251Z,60.91
2022-08-30T05:25:06.241Z,58.01
2022-08-30T05:26:06.227Z,54.30
2022-08-30T05:27:06.223Z,58.01
2022-08-30T05:28:06.202Z,55.27
2022-08-30T05:29:06.188Z,51.24
2022-08-30T05:30:06.199Z,60.75
2022-08-30T05:31:06.197Z,60.91
2022-08-30T05:32:06.157Z,55.27
2022-08-30T05:33:06.154Z,61.71
2022-08-30T05:34:06.134Z,49.15
2022-08-30T05:35:06.124Z,47.37
2022-08-30T05:36:06.103Z,56.88
2022-08-30T05:37:06.092Z,52.37
2022-08-30T05:38:06.084Z,60.42
2022-08-30T05:39:06.112Z,60.10
2022-08-30T05:40:10.996Z,55.59
2022-08-30T05:41:10.578Z,53.17
2022-08-30T05:42:06.032Z,54.46
2022-08-30T05:43:06.020Z,43.99
2022-08-30T05:44:06.007Z,57.20
2022-08-30T05:45:06.009Z,56.88
2022-08-30T05:46:05.980Z,55.91
2022-08-30T05:47:05.974Z,55.11
2022-08-30T05:48:05.958Z,58.97
2022-08-30T05:49:05.946Z,56.56
2022-08-30T05:50:05.943Z,62.20
2022-08-30T05:51:05.929Z,56.07
2022-08-30T05:52:05.917Z,44.63
2022-08-30T05:53:05.898Z,51.72
2022-08-30T05:54:05.901Z,60.10
2022-08-30T05:55:05.873Z,66.87
2022-08-30T05:56:05.859Z,55.59
2022-08-30T05:57:05.859Z,60.59
2022-08-30T05:58:05.837Z,58.01
2022-08-30T05:59:05.826Z,58.97
2022-08-30T06:00:05.832Z,53.66
2022-08-30T06:01:05.795Z,51.72
2022-08-30T06:02:05.858Z,58.81
2022-08-30T06:03:05.819Z,60.10
2022-08-30T06:04:05.762Z,50.43
2022-08-30T06:05:05.778Z,60.26
2022-08-30T06:06:05.740Z,60.59
2022-08-30T06:07:05.722Z,51.56
2022-08-30T06:08:05.709Z,51.56
2022-08-30T06:09:06.056Z,49.63
2022-08-30T06:10:05.686Z,45.12
2022-08-30T06:11:05.674Z,54.62
2022-08-30T06:12:05.663Z,57.36
2022-08-30T06:13:05.657Z,53.17
2022-08-30T06:14:05.636Z,58.81
2022-08-30T06:15:05.786Z,60.91
2022-08-30T06:16:05.668Z,44.15
2022-08-30T06:17:05.600Z,60.91
2022-08-30T06:18:05.585Z,61.39
2022-08-30T06:19:05.577Z,42.06
2022-08-30T06:20:05.557Z,58.49
2022-08-30T06:21:05.565Z,59.62
2022-08-30T06:22:05.539Z,56.56
2022-08-30T06:23:05.525Z,57.36
2022-08-30T06:24:05.514Z,64.13
2022-08-30T06:25:05.498Z,61.07
2022-08-30T06:26:05.495Z,62.04
2022-08-30T06:27:05.516Z,63.97
2022-08-30T06:28:05.466Z,56.24
2022-08-30T06:29:05.455Z,60.26
2022-08-30T06:30:05.441Z,60.42
2022-08-30T06:31:05.446Z,52.05
2022-08-30T06:32:05.411Z,62.68
2022-08-30T06:33:05.419Z,56.72
2022-08-30T06:34:05.424Z,59.46
2022-08-30T06:35:05.377Z,62.68
2022-08-30T06:36:06.041Z,59.94
2022-08-30T06:37:05.351Z,61.07
2022-08-30T06:38:05.335Z,61.71
2022-08-30T06:39:05.337Z,67.35
2022-08-30T06:40:05.385Z,53.33
2022-08-30T06:41:05.308Z,58.97
2022-08-30T06:42:05.311Z,69.61
2022-08-30T06:43:05.274Z,56.40
2022-08-30T06:44:05.265Z,50.11
2022-08-30T06:45:11.092Z,67.03
2022-08-30T06:46:05.323Z,59.46
2022-08-30T06:47:05.226Z,60.59
2022-08-30T06:48:05.224Z,67.19
2022-08-30T06:49:05.206Z,56.88
2022-08-30T06:50:05.198Z,62.84
2022-08-30T06:51:05.192Z,59.94
2022-08-30T06:52:05.172Z,61.07
2022-08-30T06:53:05.164Z,55.75
2022-08-30T06:54:05.140Z,67.03
2022-08-30T06:55:05.129Z,61.23
2022-08-30T06:56:05.113Z,63.16
2022-08-30T06:57:05.132Z,67.19
2022-08-30T06:58:05.092Z,53.82
2022-08-30T06:59:05.171Z,61.23
2022-08-30T07:00:05.072Z,66.87
2022-08-30T07:01:05.063Z,51.56
2022-08-30T07:02:05.123Z,64.78
2022-08-30T07:03:05.096Z,69.93
2022-08-30T07:04:05.025Z,54.14
2022-08-30T07:05:05.007Z,64.78
2022-08-30T07:06:04.990Z,62.36
2022-08-30T07:07:04.977Z,55.43
2022-08-30T07:08:04.965Z,63.16
2022-08-30T07:09:04.962Z,68.48
2022-08-30T07:10:04.940Z,58.81
2022-08-30T07:11:04.924Z,54.62
2022-08-30T07:12:04.913Z,64.61
2022-08-30T07:13:04.898Z,49.31
2022-08-30T07:14:04.902Z,63.81
2022-08-30T07:15:04.925Z,67.68
2022-08-30T07:16:04.874Z,58.49
2022-08-30T07:17:04.846Z,60.26
2022-08-30T07:18:04.848Z,65.90
2022-08-30T07:19:04.838Z,55.59
2022-08-30T07:20:04.823Z,69.13
2022-08-30T07:21:04.814Z,47.53
2022-08-30T07:22:04.789Z,53.33
2022-08-30T07:23:04.776Z,58.49
2022-08-30T07:24:04.762Z,58.65
2022-08-30T07:25:04.755Z,55.11
2022-08-30T07:26:04.746Z,61.87
2022-08-30T07:27:04.742Z,58.49
2022-08-30T07:28:04.717Z,52.05
2022-08-30T07:29:04.701Z,61.39
2022-08-30T07:30:04.690Z,61.87
2022-08-30T07:31:04.709Z,55.27
2022-08-30T07:32:04.664Z,60.42
2022-08-30T07:33:04.659Z,64.94
2022-08-30T07:34:04.638Z,55.91
2022-08-30T07:35:04.617Z,48.66
2022-08-30T07:36:04.608Z,67.84
2022-08-30T07:37:04.604Z,46.73
2022-08-30T07:38:04.614Z,55.75
2022-08-30T07:39:04.590Z,57.36
2022-08-30T07:40:04.629Z,57.20
2022-08-30T07:41:04.553Z,62.52
2022-08-30T07:42:04.534Z,61.55
2022-08-30T07:43:04.520Z,58.97
2022-08-30T07:44:04.518Z,62.84
2022-08-30T07:45:04.510Z,60.59
2022-08-30T07:46:04.519Z,70.90
2022-08-30T07:47:04.482Z,60.26
2022-08-30T07:48:04.463Z,58.65
2022-08-30T07:49:04.663Z,48.02
2022-08-30T07:50:04.438Z,62.68
2022-08-30T07:51:05.416Z,72.35
2022-08-30T07:52:04.429Z,59.78
2022-08-30T07:53:06.693Z,61.87
2022-08-30T07:54:04.398Z,67.51
2022-08-30T07:55:04.367Z,56.40
2022-08-30T07:56:04.735Z,53.82
2022-08-30T07:57:04.411Z,57.85
2022-08-30T07:58:04.330Z,55.75
2022-08-30T07:59:04.330Z,60.91
2022-08-30T08:00:04.304Z,59.78
2022-08-30T08:01:04.294Z,47.21
2022-08-30T08:02:04.391Z,56.40
2022-08-30T08:03:04.344Z,56.88
2022-08-30T08:04:04.268Z,59.46
2022-08-30T08:05:04.258Z,65.26
2022-08-30T08:06:04.231Z,65.10
2022-08-30T08:07:04.276Z,51.24
2022-08-30T08:08:04.225Z,54.30
2022-08-30T08:09:04.228Z,57.52
2022-08-30T08:10:04.185Z,46.89
2022-08-30T08:11:04.169Z,59.94
2022-08-30T08:12:04.158Z,64.61
2022-08-30T08:13:04.140Z,66.23
2022-08-30T08:14:04.287Z,64.45
2022-08-30T08:15:06.748Z,62.52
2022-08-30T08:16:04.190Z,57.69
2022-08-30T08:17:04.092Z,59.46
2022-08-30T08:18:04.084Z,64.78
2022-08-30T08:19:04.329Z,62.84
2022-08-30T08:20:04.062Z,63.33
2022-08-30T08:21:04.055Z,60.26
2022-08-30T08:22:20.041Z,56.24
2022-08-30T08:23:04.037Z,63.00
2022-08-30T08:24:04.010Z,56.56
2022-08-30T08:25:04.000Z,52.05
2022-08-30T08:26:03.996Z,60.59
2022-08-30T08:27:03.983Z,63.81
2022-08-30T08:28:03.953Z,49.63
2022-08-30T08:29:03.942Z,61.71
2022-08-30T08:30:03.928Z,66.06
2022-08-30T08:31:03.987Z,61.23
2022-08-30T08:32:03.910Z,63.81
2022-08-30T08:33:03.920Z,61.23
2022-08-30T08:34:03.886Z,61.07
2022-08-30T08:35:03.869Z,58.81
2022-08-30T08:36:07.475Z,55.27
2022-08-30T08:37:03.855Z,61.71
2022-08-30T08:38:03.861Z,60.26
2022-08-30T08:39:03.853Z,57.04
2022-08-30T08:40:03.840Z,68.32
2022-08-30T08:41:03.793Z,56.88
2022-08-30T08:42:03.779Z,63.00
2022-08-30T08:43:03.797Z,57.04
2022-08-30T08:44:03.753Z,62.20
2022-08-30T08:45:06.415Z,57.04
2022-08-30T08:46:03.763Z,56.40
2022-08-30T08:47:03.739Z,51.56
2022-08-30T08:48:04.180Z,57.20
2022-08-30T08:49:03.698Z,61.71
2022-08-30T08:50:03.688Z,61.71
2022-08-30T08:51:03.678Z,57.20
2022-08-30T08:52:03.661Z,56.56
2022-08-30T08:53:03.640Z,57.36
2022-08-30T08:54:03.637Z,47.70
2022-08-30T08:55:03.624Z,59.62
2022-08-30T08:56:03.606Z,63.00
2022-08-30T08:57:03.608Z,59.78
2022-08-30T08:58:03.583Z,56.88
2022-08-30T08:59:03.572Z,50.27
2022-08-30T09:00:03.583Z,58.33
2022-08-30T09:01:03.659Z,49.79
2022-08-30T09:02:03.583Z,59.14
2022-08-30T09:03:03.583Z,61.23
2022-08-30T09:04:03.539Z,58.17
2022-08-30T09:05:03.774Z,61.71
2022-08-30T09:06:03.481Z,60.59
2022-08-30T09:07:03.474Z,55.91
2022-08-30T09:08:07.657Z,63.00
2022-08-30T09:09:03.480Z,62.36
2022-08-30T09:10:03.436Z,53.66
2022-08-30T09:11:03.460Z,63.49
2022-08-30T09:12:03.437Z,62.84
2022-08-30T09:13:03.444Z,61.55
2022-08-30T09:14:03.386Z,66.71
2022-08-30T09:15:03.450Z,61.55
2022-08-30T09:16:03.427Z,53.33
2022-08-30T09:17:03.435Z,56.88
2022-08-30T09:18:03.348Z,58.01
2022-08-30T09:19:03.339Z,53.98
2022-08-30T09:20:03.315Z,59.46
2022-08-30T09:21:03.332Z,59.78
2022-08-30T09:22:03.366Z,52.85
2022-08-30T09:23:03.282Z,59.78
2022-08-30T09:24:03.426Z,60.10
2022-08-30T09:25:03.249Z,58.49
2022-08-30T09:26:03.241Z,60.91
2022-08-30T09:27:03.248Z,63.00
2022-08-30T09:28:03.311Z,52.21
2022-08-30T09:29:03.202Z,57.20
2022-08-30T09:30:03.203Z,61.23
2022-08-30T09:31:03.280Z,60.59
2022-08-30T09:32:24.835Z,59.30
2022-08-30T09:33:03.205Z,59.94
2022-08-30T09:34:03.174Z,60.42
2022-08-30T09:35:03.147Z,62.68
2022-08-30T09:36:03.129Z,60.10
2022-08-30T09:37:03.120Z,51.56
2022-08-30T09:38:03.099Z,61.55
2022-08-30T09:39:03.152Z,55.11
2022-08-30T09:40:03.154Z,54.95
2022-08-30T09:41:03.056Z,62.84
2022-08-30T09:42:03.049Z,61.23
2022-08-30T09:43:03.032Z,56.56
2022-08-30T09:44:03.026Z,56.88
2022-08-30T09:45:03.025Z,52.53
2022-08-30T09:46:03.036Z,54.30
2022-08-30T09:47:02.980Z,60.26
2022-08-30T09:48:02.972Z,57.20
2022-08-30T09:49:02.962Z,55.91
2022-08-30T09:50:02.953Z,60.42
2022-08-30T09:51:02.978Z,66.06
2022-08-30T09:52:02.963Z,47.37
2022-08-30T09:53:02.903Z,61.23
2022-08-30T09:54:18.852Z,55.91
2022-08-30T09:55:02.892Z,60.26
2022-08-30T09:56:02.864Z,60.91
2022-08-30T09:57:02.904Z,54.30
2022-08-30T09:58:02.842Z,56.07
2022-08-30T09:59:02.834Z,61.23
2022-08-30T10:00:02.832Z,60.42
2022-08-30T10:01:02.857Z,53.82
2022-08-30T10:02:02.839Z,58.49
2022-08-30T10:03:02.813Z,60.59
2022-08-30T10:04:02.770Z,46.41
2022-08-30T10:05:02.760Z,63.16
2022-08-30T10:06:02.751Z,52.37
2022-08-30T10:07:02.728Z,57.69
2022-08-30T10:08:02.779Z,58.01
2022-08-30T10:09:02.722Z,57.85
2022-08-30T10:10:02.699Z,58.01
2022-08-30T10:11:02.687Z,56.40
2022-08-30T10:12:02.668Z,59.46
2022-08-30T10:13:02.658Z,56.88
2022-08-30T10:14:02.648Z,57.20
2022-08-30T10:15:02.661Z,56.40
2022-08-30T10:16:02.622Z,47.53
2022-08-30T10:17:02.606Z,55.59
2022-08-30T10:18:02.616Z,53.66
2022-08-30T10:19:02.589Z,56.07
2022-08-30T10:20:02.572Z,57.20
2022-08-30T10:21:02.578Z,58.49
2022-08-30T10:22:02.663Z,49.63
2022-08-30T10:23:02.534Z,60.10
2022-08-30T10:24:02.517Z,55.75
2022-08-30T10:25:02.506Z,57.04
2022-08-30T10:26:02.492Z,59.46
2022-08-30T10:27:02.495Z,58.01
2022-08-30T10:28:02.466Z,48.50
2022-08-30T10:29:02.465Z,50.92
2022-08-30T10:30:02.445Z,59.46
2022-08-30T10:31:02.429Z,55.27
2022-08-30T10:32:02.419Z,49.95
2022-08-30T10:33:02.443Z,59.62
2022-08-30T10:34:02.396Z,50.92
2022-08-30T10:35:02.378Z,57.36
2022-08-30T10:36:02.378Z,56.72
2022-08-30T10:37:02.370Z,67.19
2022-08-30T10:38:02.346Z,57.20
2022-08-30T10:39:02.371Z,54.62
2022-08-30T10:40:02.340Z,44.63
2022-08-30T10:41:02.311Z,58.17
2022-08-30T10:42:02.291Z,57.85
2022-08-30T10:43:02.277Z,55.59
2022-08-30T10:44:02.282Z,60.75
2022-08-30T10:45:02.273Z,57.69
2022-08-30T10:46:02.245Z,51.88
2022-08-30T10:47:02.254Z,58.33
2022-08-30T10:48:02.212Z,57.04
2022-08-30T10:49:02.206Z,50.43
2022-08-30T10:50:03.732Z,43.83
2022-08-30T10:51:02.203Z,60.59
2022-08-30T10:52:02.180Z,52.21
2022-08-30T10:53:02.163Z,57.85
2022-08-30T10:54:02.138Z,53.01
2022-08-30T10:55:02.128Z,57.04
2022-08-30T10:56:02.123Z,53.17
2022-08-30T10:57:02.112Z,52.37
2022-08-30T10:58:02.105Z,49.95
2022-08-30T10:59:02.099Z,59.78
2022-08-30T11:00:02.784Z,56.88
2022-08-30T11:01:02.078Z,47.37
2022-08-30T11:02:02.045Z,58.65
2022-08-30T11:03:02.064Z,54.79
2022-08-30T11:04:02.013Z,54.30
2022-08-30T11:05:02.014Z,53.82
2022-08-30T11:06:01.991Z,58.97
2022-08-30T11:07:01.995Z,45.60
2022-08-30T11:08:02.340Z,58.97
2022-08-30T11:09:02.023Z,51.08
2022-08-30T11:10:01.995Z,46.89
2022-08-30T11:11:01.938Z,57.85
2022-08-30T11:12:01.931Z,55.91
2022-08-30T11:13:01.909Z,57.36
2022-08-30T11:14:05.499Z,56.56
2022-08-30T11:15:01.907Z,51.40
2022-08-30T11:16:01.895Z,63.49
2022-08-30T11:17:01.856Z,59.46
2022-08-30T11:18:01.850Z,48.18
2022-08-30T11:19:01.828Z,59.46
2022-08-30T11:20:01.847Z,57.36
2022-08-30T11:21:01.832Z,52.05
2022-08-30T11:22:01.825Z,62.04
2022-08-30T11:23:01.786Z,62.20
2022-08-30T11:24:01.768Z,61.07
2022-08-30T11:25:02.806Z,48.98
2022-08-30T11:26:01.778Z,61.71
2022-08-30T11:27:01.743Z,50.76
2022-08-30T11:28:01.712Z,45.92
2022-08-30T11:29:01.977Z,49.63
2022-08-30T11:30:01.688Z,58.97
2022-08-30T11:31:01.686Z,52.37
2022-08-30T11:32:01.666Z,59.46
2022-08-30T11:33:02.221Z,57.20
2022-08-30T11:34:01.644Z,50.60
2022-08-30T11:35:01.672Z,62.04
2022-08-30T11:36:01.628Z,52.37
2022-08-30T11:37:01.612Z,51.40
2022-08-30T11:38:01.594Z,56.07
2022-08-30T11:39:01.585Z,60.59
2022-08-30T11:40:04.021Z,42.86
2022-08-30T11:41:01.558Z,46.89
2022-08-30T11:42:01.538Z,58.49
2022-08-30T11:43:01.547Z,60.59
2022-08-30T11:44:01.527Z,53.98
2022-08-30T11:45:01.554Z,57.36
2022-08-30T11:46:01.512Z,56.56
2022-08-30T11:47:01.489Z,62.52
2022-08-30T11:48:04.426Z,56.24
2022-08-30T11:49:01.461Z,56.88
2022-08-30T11:50:01.454Z,56.56
2022-08-30T11:51:01.465Z,54.30
2022-08-30T11:53:01.414Z,55.27
2022-08-30T11:54:01.400Z,53.82
2022-08-30T11:55:01.385Z,50.60
2022-08-30T11:56:01.373Z,64.29
2022-08-30T11:57:01.398Z,60.59
2022-08-30T11:58:01.418Z,45.44
2022-08-30T11:59:01.328Z,53.50
2022-08-30T12:00:01.330Z,56.88
2022-08-30T12:01:01.322Z,57.85
2022-08-30T12:02:01.564Z,48.66
2022-08-30T12:03:01.409Z,50.43
2022-08-30T12:04:01.277Z,55.27
2022-08-30T12:05:01.272Z,57.20
2022-08-30T12:06:01.244Z,60.26
2022-08-30T12:07:01.238Z,57.69
2022-08-30T12:08:01.229Z,57.69
2022-08-30T12:09:02.546Z,56.07
2022-08-30T12:10:01.192Z,51.72
2022-08-30T12:11:01.223Z,50.11
2022-08-30T12:12:01.199Z,53.82
2022-08-30T12:13:01.164Z,48.66
2022-08-30T12:14:01.148Z,58.97
2022-08-30T12:15:01.172Z,57.69
2022-08-30T12:16:01.123Z,58.01
2022-08-30T12:17:01.198Z,53.82
2022-08-30T12:18:01.100Z,78.15
2022-08-30T12:19:01.084Z,69.45
2022-08-30T12:20:01.082Z,56.56
2022-08-30T12:21:01.079Z,52.37
2022-08-30T12:22:01.051Z,58.17
2022-08-30T12:23:01.043Z,53.82
2022-08-30T12:24:03.733Z,58.17
2022-08-30T12:25:01.013Z,43.99
2022-08-30T12:26:01.018Z,53.50
2022-08-30T12:27:00.995Z,48.66
2022-08-30T12:28:02.157Z,43.83
2022-08-30T12:29:00.969Z,44.96
2022-08-30T12:30:00.962Z,41.25
2022-08-30T12:31:00.944Z,49.63
2022-08-30T12:32:03.433Z,51.72
2022-08-30T12:33:00.950Z,42.06
2022-08-30T12:34:00.930Z,47.37
2022-08-30T12:35:00.896Z,46.89
2022-08-30T12:36:00.885Z,44.79
2022-08-30T12:37:00.885Z,47.86
2022-08-30T12:38:00.858Z,46.57
2022-08-30T12:39:05.383Z,42.38
2022-08-30T12:40:00.860Z,45.12
2022-08-30T12:41:00.818Z,49.63
2022-08-30T12:42:00.807Z,46.41
2022-08-30T12:43:00.793Z,43.02
2022-08-30T12:44:00.791Z,52.53
2022-08-30T12:45:00.781Z,39.96
2022-08-30T12:46:00.987Z,47.21
2022-08-30T12:47:00.756Z,40.12
2022-08-30T12:48:00.739Z,48.18
2022-08-30T12:49:00.723Z,43.18
2022-08-30T12:50:00.713Z,43.83
2022-08-30T12:51:00.732Z,39.64
2022-08-30T12:52:00.682Z,55.75
2022-08-30T12:53:00.691Z,45.44